createdAt,value
2023-04-04T00:02:04.001Z,7.93
2023-04-04T00:04:30.526Z,10.52
2023-04-04T00:06:57.021Z,7.68
2023-04-04T00:09:24.751Z,8.52
2023-04-04T00:11:51.407Z,10.65
2023-04-04T00:14:17.974Z,6.97
2023-04-04T00:16:44.503Z,7.82
2023-04-04T00:19:18.246Z,9.00
2023-04-04T00:21:47.857Z,11.15
2023-04-04T00:24:14.320Z,9.40
2023-04-04T00:26:40.963Z,10.40
2023-04-04T00:29:07.493Z,8.18
2023-04-04T00:31:34.222Z,12.65
2023-04-04T00:34:01.049Z,11.52
2023-04-04T00:36:27.847Z,11.25
2023-04-04T00:38:57.648Z,13.68
2023-04-04T00:41:33.297Z,8.07
2023-04-04T00:44:00.706Z,9.88
2023-04-04T00:46:32.662Z,11.43
2023-04-04T00:48:59.248Z,12.70
2023-04-04T00:51:25.816Z,14.13
2023-04-04T00:53:52.498Z,10.00
2023-04-04T00:56:20.442Z,12.93
2023-04-04T00:58:47.462Z,8.98
2023-04-04T01:01:14.121Z,12.25
2023-04-04T01:03:51.162Z,7.93
2023-04-04T01:06:17.747Z,9.85
2023-04-04T01:08:45.741Z,11.00
2023-04-04T01:11:14.102Z,8.63
2023-04-04T01:13:40.992Z,8.35
2023-04-04T01:16:07.676Z,11.52
2023-04-04T01:18:36.385Z,11.35
2023-04-04T01:21:07.522Z,12.75
2023-04-04T01:23:58.846Z,7.90
2023-04-04T01:26:27.112Z,11.10
2023-04-04T01:28:54.734Z,10.07
2023-04-04T01:31:49.482Z,8.05
2023-04-04T01:34:40.991Z,8.57
2023-04-04T01:37:23.330Z,10.57
2023-04-04T01:40:10.634Z,13.43
2023-04-04T01:42:38.460Z,12.20
2023-04-04T01:45:19.418Z,11.23
2023-04-04T01:47:45.916Z,10.35
2023-04-04T01:50:12.466Z,13.43
2023-04-04T01:52:38.962Z,8.55
2023-04-04T01:55:05.934Z,9.60
2023-04-04T01:57:32.505Z,9.07
2023-04-04T01:59:59.008Z,12.48
2023-04-04T02:02:25.598Z,10.93
2023-04-04T02:04:52.309Z,8.88
2023-04-04T02:07:19.328Z,8.20
2023-04-04T02:09:45.804Z,7.55
2023-04-04T02:12:14.966Z,10.63
2023-04-04T02:14:41.541Z,12.20
2023-04-04T02:17:08.060Z,9.57
2023-04-04T02:19:34.628Z,10.77
2023-04-04T02:22:01.153Z,13.60
2023-04-04T02:24:27.711Z,9.77
2023-04-04T02:26:54.168Z,10.15
2023-04-04T02:29:24.258Z,8.88
2023-04-04T02:31:50.834Z,9.98
2023-04-04T02:34:17.440Z,12.73
2023-04-04T02:36:43.931Z,8.52
2023-04-04T02:39:10.413Z,9.23
2023-04-04T02:41:36.854Z,13.27
2023-04-04T02:44:03.354Z,9.95
2023-04-04T02:46:29.829Z,8.90
2023-04-04T02:48:56.353Z,9.95
2023-04-04T02:51:22.931Z,10.45
2023-04-04T02:53:49.570Z,8.55
2023-04-04T02:56:18.934Z,11.95
2023-04-04T02:58:45.680Z,11.90
2023-04-04T03:01:12.357Z,8.55
2023-04-04T03:03:38.917Z,9.75
2023-04-04T03:06:05.705Z,9.77
2023-04-04T03:08:32.221Z,8.00
2023-04-04T03:10:58.714Z,7.78
2023-04-04T03:13:25.145Z,9.43
2023-04-04T03:15:57.955Z,12.13
2023-04-04T03:18:24.544Z,9.85
2023-04-04T03:20:51.124Z,9.80
2023-04-04T03:23:17.584Z,6.65
2023-04-04T03:25:44.060Z,6.53
2023-04-04T03:28:11.306Z,8.07
2023-04-04T03:30:38.236Z,8.32
2023-04-04T03:33:09.479Z,5.80
2023-04-04T03:35:40.663Z,9.50
2023-04-04T03:38:14.601Z,7.35
2023-04-04T03:40:44.693Z,7.20
2023-04-04T03:43:11.274Z,5.65
2023-04-04T03:45:38.452Z,7.53
2023-04-04T03:48:10.267Z,5.40
2023-04-04T03:50:37.372Z,7.35
2023-04-04T03:53:03.929Z,8.98
2023-04-04T03:55:33.634Z,9.68
2023-04-04T03:58:00.210Z,5.63
2023-04-04T04:00:27.110Z,8.13
2023-04-04T04:02:53.744Z,7.22
2023-04-04T04:05:20.338Z,4.82
2023-04-04T04:07:46.769Z,9.13
2023-04-04T04:10:14.260Z,5.68
2023-04-04T04:12:43.517Z,7.55
2023-04-04T04:15:10.426Z,5.95
2023-04-04T04:17:41.104Z,7.93
2023-04-04T04:20:09.458Z,7.22
2023-04-04T04:22:36.976Z,6.65
2023-04-04T04:25:03.686Z,13.30
2023-04-04T04:27:33.245Z,6.72
2023-04-04T04:29:59.767Z,4.85
2023-04-04T04:32:28.855Z,4.53
2023-04-04T04:34:55.299Z,9.07
2023-04-04T04:37:21.808Z,6.18
2023-04-04T04:39:48.248Z,11.80
2023-04-04T04:42:14.779Z,7.78
2023-04-04T04:44:41.539Z,7.68
2023-04-04T04:47:08.107Z,7.10
2023-04-04T04:49:34.822Z,8.60
2023-04-04T04:52:02.472Z,8.75
2023-04-04T04:54:28.970Z,6.55
2023-04-04T04:56:55.446Z,6.10
2023-04-04T04:59:21.948Z,7.97
2023-04-04T05:01:48.446Z,9.50
2023-04-04T05:04:17.526Z,5.88
2023-04-04T05:06:43.990Z,6.85
2023-04-04T05:09:10.434Z,10.85
2023-04-04T05:11:36.946Z,12.30
2023-04-04T05:14:03.412Z,10.15
2023-04-04T05:16:30.004Z,7.68
2023-04-04T05:18:56.549Z,6.97
2023-04-04T05:21:23.672Z,9.60
2023-04-04T05:23:50.412Z,10.25
2023-04-04T05:26:16.860Z,8.25
2023-04-04T05:28:43.345Z,7.72
2023-04-04T05:31:09.810Z,10.40
2023-04-04T05:33:36.348Z,12.35
2023-04-04T05:36:05.987Z,10.95
2023-04-04T05:38:33.236Z,7.43
2023-04-04T05:40:59.674Z,10.25
2023-04-04T05:43:26.171Z,9.10
2023-04-04T05:45:52.632Z,11.07
2023-04-04T05:48:19.130Z,8.65
2023-04-04T05:50:46.932Z,12.43
2023-04-04T05:53:13.404Z,8.10
2023-04-04T05:55:39.932Z,9.07
2023-04-04T05:58:06.419Z,7.32
2023-04-04T06:00:33.024Z,10.80
2023-04-04T06:02:59.640Z,10.20
2023-04-04T06:05:26.126Z,8.20
2023-04-04T06:07:52.664Z,8.70
2023-04-04T06:10:22.335Z,8.18
2023-04-04T06:12:48.816Z,10.48
2023-04-04T06:15:15.559Z,8.07
2023-04-04T06:17:42.094Z,7.47
2023-04-04T06:20:09.114Z,10.52
2023-04-04T06:22:35.595Z,10.23
2023-04-04T06:25:02.138Z,10.50
2023-04-04T06:27:29.399Z,12.80
2023-04-04T06:29:55.834Z,11.80
2023-04-04T06:32:24.328Z,7.38
2023-04-04T06:34:50.843Z,7.93
2023-04-04T06:37:17.281Z,9.43
2023-04-04T06:39:43.768Z,8.98
2023-04-04T06:42:11.842Z,11.05
2023-04-04T06:44:38.325Z,10.35
2023-04-04T06:47:04.960Z,9.45
2023-04-04T06:49:31.991Z,11.10
2023-04-04T06:52:00.041Z,10.23
2023-04-04T06:54:26.852Z,9.38
2023-04-04T06:56:53.321Z,8.48
2023-04-04T06:59:19.873Z,11.00
2023-04-04T07:01:46.523Z,7.95
2023-04-04T07:04:13.187Z,6.88
2023-04-04T07:06:39.654Z,8.57
2023-04-04T07:09:08.909Z,6.43
2023-04-04T07:11:39.449Z,13.32
2023-04-04T07:14:06.219Z,10.20
2023-04-04T07:16:32.735Z,9.75
2023-04-04T07:18:59.231Z,9.60
2023-04-04T07:21:25.704Z,9.43
2023-04-04T07:23:52.274Z,9.82
2023-04-04T07:26:18.708Z,13.63
2023-04-04T07:28:45.245Z,9.10
2023-04-04T07:31:11.967Z,8.52
2023-04-04T07:33:38.553Z,10.15
2023-04-04T07:36:05.163Z,9.02
2023-04-04T07:38:31.658Z,11.65
2023-04-04T07:40:58.294Z,9.10
2023-04-04T07:43:24.785Z,11.98
2023-04-04T07:45:51.985Z,11.25
2023-04-04T07:48:19.031Z,13.50
2023-04-04T07:50:46.721Z,7.60
2023-04-04T07:53:13.154Z,7.18
2023-04-04T07:55:39.696Z,10.35
2023-04-04T07:58:06.561Z,10.25
2023-04-04T08:00:33.081Z,9.13
2023-04-04T08:02:59.602Z,8.98
2023-04-04T08:05:26.249Z,9.35
2023-04-04T08:07:52.760Z,10.25
2023-04-04T08:10:20.783Z,7.00
2023-04-04T08:12:48.072Z,13.18
2023-04-04T08:15:14.745Z,8.20
2023-04-04T08:17:43.276Z,7.75
2023-04-04T08:20:10.688Z,6.22
2023-04-04T08:22:37.134Z,8.65
2023-04-04T08:25:04.562Z,6.97
2023-04-04T08:27:30.990Z,10.30
2023-04-04T08:29:57.466Z,5.22
2023-04-04T08:32:24.008Z,9.40
2023-04-04T08:34:51.112Z,10.55
2023-04-04T08:37:18.229Z,5.53
2023-04-04T08:39:45.399Z,5.18
2023-04-04T08:42:14.972Z,5.47
2023-04-04T08:44:45.431Z,4.43
2023-04-04T08:47:13.434Z,7.25
2023-04-04T08:49:48.207Z,5.82
2023-04-04T08:52:19.215Z,7.00
2023-04-04T08:54:47.398Z,7.57
2023-04-04T08:57:14.142Z,6.25
2023-04-04T08:59:40.725Z,8.13
2023-04-04T09:02:10.183Z,5.80
2023-04-04T09:04:41.963Z,14.80
2023-04-04T09:07:10.633Z,8.70
2023-04-04T09:09:38.793Z,7.10
2023-04-04T09:12:06.620Z,5.85
2023-04-04T09:14:37.319Z,5.85
2023-04-04T09:17:03.937Z,4.30
2023-04-04T09:19:30.439Z,5.65
2023-04-04T09:21:57.934Z,6.32
2023-04-04T09:24:24.479Z,7.18
2023-04-04T09:26:53.051Z,9.65
2023-04-04T09:29:26.336Z,8.57
2023-04-04T09:31:52.865Z,6.28
2023-04-04T09:34:20.516Z,6.63
2023-04-04T09:36:47.729Z,5.85
2023-04-04T09:39:17.626Z,7.28
2023-04-04T09:41:44.787Z,9.55
2023-04-04T09:44:13.020Z,10.15
2023-04-04T09:46:40.671Z,8.00
2023-04-04T09:49:13.258Z,7.82
2023-04-04T09:51:42.482Z,7.25
2023-04-04T09:54:18.564Z,7.30
2023-04-04T09:56:45.947Z,4.68
2023-04-04T09:59:13.704Z,5.55
2023-04-04T10:01:40.527Z,6.82
2023-04-04T10:04:11.822Z,6.75
2023-04-04T10:06:38.658Z,6.75
2023-04-04T10:09:07.952Z,5.65
2023-04-04T10:11:36.625Z,6.35
2023-04-04T10:14:06.720Z,6.18
2023-04-04T10:16:37.766Z,6.80
2023-04-04T10:19:07.808Z,5.93
2023-04-04T10:21:35.063Z,3.78
2023-04-04T10:24:08.828Z,8.95
2023-04-04T10:26:35.530Z,8.30
2023-04-04T10:29:02.064Z,7.30
2023-04-04T10:31:32.654Z,7.20
2023-04-04T10:34:17.524Z,5.18
2023-04-04T10:36:54.019Z,8.57
2023-04-04T10:39:32.647Z,8.25
2023-04-04T10:42:01.511Z,7.13
2023-04-04T10:44:38.861Z,7.07
2023-04-04T10:47:21.816Z,7.32
2023-04-04T10:49:53.964Z,7.95
2023-04-04T10:52:24.167Z,7.20
2023-04-04T10:54:54.270Z,7.45
2023-04-04T10:57:21.294Z,12.00
2023-04-04T10:59:58.818Z,6.72
2023-04-04T11:02:45.689Z,8.05
2023-04-04T11:05:20.088Z,7.45
2023-04-04T11:08:00.771Z,7.50
2023-04-04T11:10:36.804Z,5.05
2023-04-04T11:13:13.691Z,8.48
2023-04-04T11:16:02.072Z,6.15
2023-04-04T11:21:07.504Z,9.68
2023-04-04T11:23:49.165Z,7.15
2023-04-04T11:26:34.685Z,8.43
2023-04-04T11:29:05.000Z,7.57
2023-04-04T11:31:37.986Z,7.90
2023-04-04T11:34:12.642Z,5.88
2023-04-04T11:36:40.022Z,10.18
2023-04-04T11:39:13.398Z,6.72
2023-04-04T11:41:58.866Z,5.97
2023-04-04T11:44:30.679Z,3.75
2023-04-04T11:47:07.017Z,5.13
2023-04-04T11:49:37.415Z,10.73
2023-04-04T11:52:11.785Z,6.53
2023-04-04T11:54:39.931Z,6.30
2023-04-04T11:57:20.132Z,4.70
2023-04-04T11:59:51.473Z,8.68
2023-04-04T12:02:27.806Z,7.55
2023-04-04T12:04:55.340Z,5.30
2023-04-04T12:07:24.636Z,6.65
2023-04-04T12:09:51.703Z,6.88
2023-04-04T12:12:18.256Z,5.90
2023-04-04T12:14:44.997Z,9.55
2023-04-04T12:17:11.958Z,5.55
2023-04-04T12:19:40.333Z,10.68
2023-04-04T12:22:10.858Z,6.15
2023-04-04T12:24:41.338Z,5.97
2023-04-04T12:27:08.092Z,6.47
2023-04-04T12:29:38.622Z,9.52
2023-04-04T12:32:06.381Z,4.57
2023-04-04T12:34:34.253Z,6.97
2023-04-04T12:37:02.129Z,6.03
2023-04-04T12:39:29.491Z,5.13
2023-04-04T12:42:01.618Z,7.03
2023-04-04T12:44:30.911Z,8.20
2023-04-04T12:47:02.377Z,5.20
2023-04-04T12:49:33.726Z,6.90
2023-04-04T12:52:07.451Z,6.55
2023-04-04T12:54:37.343Z,4.85
2023-04-04T12:57:05.647Z,6.97
2023-04-04T12:59:34.064Z,5.18
2023-04-04T13:02:21.137Z,8.40
2023-04-04T13:04:52.551Z,6.95
2023-04-04T13:07:32.433Z,6.70
2023-04-04T13:10:05.541Z,6.65
2023-04-04T13:13:00.650Z,6.43
2023-04-04T13:15:52.188Z,7.35
2023-04-04T13:18:21.942Z,6.63
2023-04-04T13:20:51.993Z,4.60
2023-04-04T13:23:18.957Z,5.38
2023-04-04T13:25:45.597Z,4.35
2023-04-04T13:28:12.382Z,5.85
2023-04-04T13:30:43.379Z,5.18
2023-04-04T13:33:09.947Z,4.47
2023-04-04T13:35:36.500Z,5.28
2023-04-04T13:38:02.980Z,6.57
2023-04-04T13:40:29.528Z,6.80
2023-04-04T13:42:56.333Z,4.05
2023-04-04T13:45:23.029Z,9.90
2023-04-04T13:47:49.502Z,9.30
2023-04-04T13:50:16.558Z,7.45
2023-04-04T13:52:42.988Z,5.57
2023-04-04T13:55:10.455Z,5.22
2023-04-04T13:57:37.034Z,5.20
2023-04-04T14:00:05.586Z,8.88
2023-04-04T14:02:32.165Z,4.88
2023-04-04T14:04:58.675Z,5.55
2023-04-04T14:07:25.304Z,6.90
2023-04-04T14:09:51.808Z,6.30
2023-04-04T14:12:18.254Z,7.53
2023-04-04T14:14:44.770Z,7.47
2023-04-04T14:17:11.340Z,4.95
2023-04-04T14:19:38.922Z,3.08
2023-04-04T14:22:06.474Z,3.72
2023-04-04T14:24:33.064Z,6.05
2023-04-04T14:26:59.536Z,5.53
2023-04-04T14:29:26.570Z,5.57
2023-04-04T14:31:55.501Z,7.88
2023-04-04T14:34:22.261Z,5.70
2023-04-04T14:36:48.794Z,7.60
2023-04-04T14:39:15.280Z,5.03
2023-04-04T14:41:41.817Z,7.20
2023-04-04T14:44:08.600Z,6.28
2023-04-04T14:46:35.492Z,9.13
2023-04-04T14:49:03.216Z,6.53
2023-04-04T14:51:29.743Z,6.78
2023-04-04T14:53:56.426Z,5.03
2023-04-04T14:56:23.684Z,6.45
2023-04-04T14:58:50.776Z,8.63
2023-04-04T15:01:17.580Z,8.20
2023-04-04T15:03:44.066Z,6.97
2023-04-04T15:06:10.715Z,6.90
2023-04-04T15:08:37.771Z,4.00
2023-04-04T15:11:04.518Z,4.70
2023-04-04T15:13:31.330Z,5.28
2023-04-04T15:16:01.634Z,6.15
2023-04-04T15:18:28.355Z,4.63
2023-04-04T15:20:57.336Z,4.65
2023-04-04T15:23:23.932Z,5.50
2023-04-04T15:25:50.521Z,6.15
2023-04-04T15:28:19.793Z,7.32
2023-04-04T15:30:46.278Z,5.18
2023-04-04T15:33:13.084Z,6.03
2023-04-04T15:35:39.650Z,5.72
2023-04-04T15:38:06.104Z,8.05
2023-04-04T15:40:32.558Z,6.57
2023-04-04T15:42:59.018Z,7.50
2023-04-04T15:45:25.638Z,6.95
2023-04-04T15:47:52.137Z,8.63
2023-04-04T15:50:18.645Z,6.93
2023-04-04T15:52:45.176Z,3.33
2023-04-04T15:55:14.364Z,9.80
2023-04-04T15:57:44.264Z,4.45
2023-04-04T16:00:12.914Z,5.03
2023-04-04T16:02:39.571Z,5.68
2023-04-04T16:05:06.937Z,6.95
2023-04-04T16:07:33.426Z,7.25
2023-04-04T16:10:00.783Z,6.30
2023-04-04T16:12:27.264Z,5.82
2023-04-04T16:14:53.697Z,5.07
2023-04-04T16:17:20.187Z,5.68
2023-04-04T16:19:46.754Z,4.63
2023-04-04T16:22:15.222Z,9.68
2023-04-04T16:24:41.741Z,5.93
2023-04-04T16:27:08.243Z,6.45
2023-04-04T16:29:34.718Z,9.90
2023-04-04T16:32:01.195Z,8.18
2023-04-04T16:34:27.661Z,7.03
2023-04-04T16:36:54.273Z,6.22
2023-04-04T16:39:20.778Z,7.00
2023-04-04T16:41:47.252Z,5.18
2023-04-04T16:44:15.302Z,6.80
2023-04-04T16:46:47.205Z,8.00
2023-04-04T16:51:40.186Z,5.47
2023-04-04T16:54:06.727Z,6.93
2023-04-04T16:56:33.242Z,7.53
2023-04-04T16:58:59.801Z,9.55
2023-04-04T17:01:26.743Z,7.22
2023-04-04T17:03:53.506Z,7.80
2023-04-04T17:06:19.946Z,6.72
2023-04-04T17:08:46.846Z,5.22
2023-04-04T17:11:13.457Z,6.05
2023-04-04T17:13:40.167Z,6.53
2023-04-04T17:16:07.312Z,6.65
2023-04-04T17:18:34.216Z,7.13
2023-04-04T17:21:01.280Z,9.15
2023-04-04T17:23:27.840Z,5.85
2023-04-04T17:25:54.269Z,7.50
2023-04-04T17:28:20.840Z,7.72
2023-04-04T17:30:47.305Z,6.65
2023-04-04T17:33:14.790Z,4.50
2023-04-04T17:35:41.340Z,7.68
2023-04-04T17:38:08.041Z,10.13
2023-04-04T17:40:39.251Z,4.97
2023-04-04T17:43:07.246Z,5.90
2023-04-04T17:45:33.887Z,6.53
2023-04-04T17:48:00.417Z,6.88
2023-04-04T17:50:30.408Z,7.15
2023-04-04T17:52:56.892Z,5.38
2023-04-04T17:55:23.694Z,5.80
2023-04-04T17:57:53.531Z,6.30
2023-04-04T18:00:21.582Z,6.35
2023-04-04T18:02:48.277Z,10.18
2023-04-04T18:05:14.909Z,7.18
2023-04-04T18:07:41.356Z,8.93
2023-04-04T18:10:08.473Z,6.65
2023-04-04T18:12:35.950Z,15.98
2023-04-04T18:15:03.571Z,7.55
2023-04-04T18:17:31.163Z,10.55
2023-04-04T18:19:58.940Z,9.35
2023-04-04T18:22:27.011Z,12.98
2023-04-04T18:24:55.596Z,8.82
2023-04-04T18:27:22.040Z,12.02
2023-04-04T18:29:49.761Z,8.05
2023-04-04T18:32:17.584Z,14.57
2023-04-04T18:34:44.071Z,8.00
2023-04-04T18:37:12.247Z,10.70
2023-04-04T18:39:38.801Z,9.63
2023-04-04T18:42:05.479Z,10.18
2023-04-04T18:44:32.949Z,9.88
2023-04-04T18:47:04.109Z,11.80
2023-04-04T18:49:31.247Z,11.45
2023-04-04T18:51:58.128Z,12.25
2023-04-04T18:54:26.969Z,11.02
2023-04-04T18:56:56.091Z,13.07
2023-04-04T18:59:24.198Z,12.15
2023-04-04T19:01:54.212Z,11.70
2023-04-04T19:04:21.581Z,17.70
2023-04-04T19:06:53.134Z,12.77
2023-04-04T19:09:20.820Z,14.38
2023-04-04T19:11:48.182Z,18.95
2023-04-04T19:14:14.791Z,14.70
2023-04-04T19:16:41.914Z,18.35
2023-04-04T19:19:08.618Z,19.52
2023-04-04T19:21:35.428Z,21.05
2023-04-04T19:24:01.906Z,18.85
2023-04-04T19:26:31.452Z,21.15
2023-04-04T19:28:58.742Z,19.05
2023-04-04T19:31:30.149Z,20.00
2023-04-04T19:33:56.872Z,15.90
2023-04-04T19:36:23.960Z,17.05
2023-04-04T19:38:54.651Z,19.48
2023-04-04T19:41:33.649Z,12.80
2023-04-04T19:44:00.610Z,20.10
2023-04-04T19:46:32.880Z,13.13
2023-04-04T19:49:09.346Z,14.90
2023-04-04T19:51:38.616Z,16.05
2023-04-04T19:54:08.346Z,13.20
2023-04-04T19:56:35.405Z,14.15
2023-04-04T19:59:05.290Z,15.77
2023-04-04T20:01:34.935Z,11.85
2023-04-04T20:04:09.636Z,13.85
2023-04-04T20:06:38.350Z,14.57
2023-04-04T20:09:12.794Z,15.20
2023-04-04T20:11:39.335Z,15.02
2023-04-04T20:14:07.781Z,16.40
2023-04-04T20:16:34.776Z,14.52
2023-04-04T20:19:03.723Z,17.73
2023-04-04T20:21:33.859Z,16.30
2023-04-04T20:24:08.656Z,15.00
2023-04-04T20:26:35.550Z,18.60
2023-04-04T20:29:07.602Z,16.45
2023-04-04T20:31:37.356Z,15.77
2023-04-04T20:34:06.632Z,20.65
2023-04-04T20:36:37.225Z,18.42
2023-04-04T20:39:27.852Z,18.33
2023-04-04T20:41:55.783Z,17.65
2023-04-04T20:44:22.392Z,19.23
2023-04-04T20:46:48.869Z,15.05
2023-04-04T20:49:19.697Z,18.02
2023-04-04T20:51:46.153Z,14.63
2023-04-04T20:54:12.663Z,14.13
2023-04-04T20:56:43.088Z,18.02
2023-04-04T20:59:32.417Z,15.93
2023-04-04T21:02:15.682Z,14.38
2023-04-04T21:04:45.509Z,16.90
2023-04-04T21:07:41.397Z,17.98
2023-04-04T21:10:37.332Z,17.70
2023-04-04T21:13:05.555Z,17.77
2023-04-04T21:15:38.680Z,19.75
2023-04-04T21:18:09.558Z,15.80
2023-04-04T21:20:47.904Z,17.17
2023-04-04T21:23:26.561Z,19.63
2023-04-04T21:25:58.631Z,30.45
2023-04-04T21:28:29.753Z,27.92
2023-04-04T21:30:56.581Z,37.07
2023-04-04T21:33:23.189Z,34.13
2023-04-04T21:35:51.596Z,29.90
2023-04-04T21:38:32.841Z,31.15
2023-04-04T21:41:12.820Z,23.17
2023-04-04T21:43:39.277Z,21.27
2023-04-04T21:46:05.859Z,21.45
2023-04-04T21:48:32.332Z,21.23
2023-04-04T21:50:58.858Z,17.17
2023-04-04T21:53:25.405Z,21.25
2023-04-04T21:55:51.896Z,17.35
2023-04-04T21:58:18.837Z,12.70
2023-04-04T22:00:45.523Z,13.43
2023-04-04T22:03:12.172Z,17.20
2023-04-04T22:05:39.594Z,13.77
2023-04-04T22:08:06.655Z,16.67
2023-04-04T22:10:33.580Z,12.90
2023-04-04T22:13:02.220Z,16.98
2023-04-04T22:15:35.064Z,14.27
2023-04-04T22:18:05.085Z,13.82
2023-04-04T22:20:32.240Z,20.85
2023-04-04T22:22:59.510Z,16.38
2023-04-04T22:25:27.218Z,17.77
2023-04-04T22:27:53.814Z,16.77
2023-04-04T22:30:21.640Z,14.27
2023-04-04T22:32:48.275Z,12.38
2023-04-04T22:35:14.827Z,11.63
2023-04-04T22:37:41.446Z,13.65
2023-04-04T22:40:11.986Z,11.10
2023-04-04T22:42:38.538Z,15.45
2023-04-04T22:45:05.454Z,13.18
2023-04-04T22:47:32.067Z,9.05
2023-04-04T22:50:04.580Z,11.07
2023-04-04T22:52:32.144Z,10.13
2023-04-04T22:55:02.562Z,17.33
2023-04-04T22:57:29.121Z,12.98
2023-04-04T22:59:55.653Z,14.80
2023-04-04T23:02:22.147Z,12.35
2023-04-04T23:04:48.592Z,15.02
2023-04-04T23:07:15.108Z,12.70
2023-04-04T23:09:41.560Z,10.98
2023-04-04T23:12:08.382Z,12.73
2023-04-04T23:14:38.673Z,12.05
2023-04-04T23:17:06.121Z,9.10
2023-04-04T23:19:32.585Z,9.98
2023-04-04T23:21:59.722Z,14.02
2023-04-04T23:24:26.404Z,10.68
2023-04-04T23:26:53.019Z,14.27
2023-04-04T23:29:19.469Z,12.35
2023-04-04T23:31:48.654Z,16.15
2023-04-04T23:34:15.245Z,11.77
2023-04-04T23:36:41.814Z,9.68
2023-04-04T23:39:08.313Z,10.65
2023-04-04T23:41:34.742Z,10.07
2023-04-04T23:44:01.294Z,11.02
2023-04-04T23:46:30.411Z,10.13
2023-04-04T23:48:57.026Z,15.68
2023-04-04T23:51:25.592Z,12.60
2023-04-04T23:53:52.592Z,10.43
2023-04-04T23:56:19.094Z,8.35
2023-04-04T23:58:45.713Z,10.70
